Time;durP1;ratioP1;P1;durP2;ratioP2;P2;SDS_P1;SDS_P2;PMS_P1;PMS_P2;Temp;Humidity;BMP_temperature;BMP_pressure;BME280_temperature;BME280_humidity;BME280_pressure;Samples;Min_cycle;Max_cycle;Signal;HPM_P1;HPM_P2
2022/07/01 04:17:46;;;;;;;10.07;6.15;;;14.20;99.90;;;-144.05;78.08;125687.94;6145670;23;20029;-86
2022/07/01 21:42:06;;;;;;;4.97;1.85;;;14.20;99.90;;;-144.05;62.02;125687.94;6133811;23;20088;-88
2022/07/01 21:44:35;;;;;;;3.25;1.77;;;14.20;99.90;;;-144.05;61.52;125687.94;6133946;23;20022;-90
2022/07/01 21:47:04;;;;;;;5.63;1.83;;;14.20;99.90;;;-144.05;61.34;125687.94;6133634;23;20486;-89
2022/07/01 21:49:35;;;;;;;3.20;1.67;;;14.30;99.90;;;-144.05;61.13;125687.94;6130371;23;20010;-87
2022/07/01 21:52:04;;;;;;;4.82;1.63;;;14.30;99.90;;;-144.05;60.91;125687.94;6106382;23;20069;-89
2022/07/01 21:54:32;;;;;;;5.50;1.83;;;14.30;99.90;;;-144.05;60.86;125687.94;6112191;23;20012;-87
2022/07/01 21:57:01;;;;;;;4.10;1.67;;;14.30;99.90;;;-144.05;60.86;125687.94;6116691;23;20067;-85
2022/07/01 21:59:32;;;;;;;3.83;1.67;;;14.20;99.90;;;-144.05;61.16;125687.94;6117067;23;20034;-88
2022/07/01 22:02:01;;;;;;;4.78;2.17;;;14.10;99.90;;;-144.05;62.09;125687.94;6105832;23;20018;-86
2022/07/01 22:04:30;;;;;;;2.53;1.50;;;14.10;99.90;;;-144.05;62.04;125687.94;6080310;23;20006;-89
2022/07/01 22:07:00;;;;;;;2.25;1.63;;;14.10;99.90;;;-144.05;62.14;125687.94;6107116;23;20318;-88
2022/07/01 22:09:33;;;;;;;3.17;1.90;;;14.10;99.90;;;-144.05;62.41;125687.94;6088643;23;20022;-87
2022/07/01 22:12:10;;;;;;;2.90;1.90;;;14.00;99.90;;;-144.05;62.59;125687.94;6093555;23;20017;-85
2022/07/01 22:14:43;;;;;;;3.13;1.95;;;14.00;99.90;;;-144.05;62.58;125687.94;6105287;23;20021;-87
2022/07/01 22:17:15;;;;;;;3.95;2.10;;;13.90;99.90;;;-144.05;62.84;125687.94;6076314;23;20010;-86
2022/07/01 22:19:49;;;;;;;4.30;2.40;;;13.80;99.90;;;-144.05;63.25;125687.94;6101390;23;20073;-88
2022/07/01 22:22:43;;;;;;;3.58;2.30;;;13.70;99.90;;;-144.05;63.67;125687.94;6076048;23;20149;-87
2022/07/01 22:25:09;;;;;;;5.32;2.58;;;13.70;99.90;;;-144.05;64.24;125687.94;6102149;23;20010;-85
2022/07/01 22:27:37;;;;;;;6.57;3.40;;;13.70;99.90;;;-144.05;64.42;125687.94;6075952;23;20038;-86
2022/07/01 22:30:05;;;;;;;5.82;3.72;;;13.70;99.90;;;-144.05;65.06;125687.94;6076262;23;20010;-86
2022/07/01 22:32:33;;;;;;;5.50;3.10;;;13.60;99.90;;;-144.05;65.40;125687.94;6076260;23;20010;-88
2022/07/01 22:35:01;;;;;;;5.20;3.20;;;13.50;99.90;;;-144.05;65.92;125687.94;6075981;23;20066;-84
2022/07/01 22:37:29;;;;;;;5.65;3.22;;;13.40;99.90;;;-144.05;66.37;125687.94;6075927;23;20014;-87
2022/07/01 22:39:55;;;;;;;4.40;2.92;;;13.30;99.90;;;-144.05;66.66;125687.94;6072087;23;20025;-85
2022/07/01 22:42:26;;;;;;;7.25;3.47;;;13.30;99.90;;;-144.05;67.28;125687.94;6071775;23;20334;-86
2022/07/01 22:44:53;;;;;;;4.95;3.15;;;13.20;99.90;;;-144.05;67.70;125687.94;6071648;23;20010;-85
2022/07/01 22:47:20;;;;;;;7.47;3.30;;;13.10;99.90;;;-144.05;67.87;125687.94;6072233;23;20038;-87
2022/07/01 22:50:37;;;;;;;4.32;2.63;;;13.00;99.90;;;-144.05;68.54;125687.94;6073437;23;20069;-87
2022/07/01 22:53:33;;;;;;;5.95;3.10;;;13.00;99.90;;;-144.05;69.16;125687.94;6070791;23;20030;-83
2022/07/01 22:56:13;;;;;;;6.68;3.33;;;12.90;99.90;;;-144.05;69.59;125687.94;6073001;23;20007;-86
2022/07/01 22:58:52;;;;;;;5.80;3.20;;;13.00;99.90;;;-144.05;69.78;125687.94;6071102;23;20014;-87
2022/07/01 23:01:26;;;;;;;6.18;3.10;;;13.00;99.90;;;-144.05;69.79;125687.94;6071930;23;20089;-87
2022/07/01 23:03:59;;;;;;;6.35;3.45;;;13.00;99.90;;;-144.05;69.88;125687.94;6073177;23;20291;-88
2022/07/01 23:06:55;;;;;;;9.45;3.70;;;13.20;99.90;;;-144.05;70.31;125687.94;6070892;23;20434;-86
2022/07/01 23:09:59;;;;;;;5.15;3.40;;;12.90;99.90;;;-144.05;70.55;125687.94;6070965;23;20120;-87
2022/07/01 23:12:59;;;;;;;8.20;3.47;;;12.90;99.90;;;-144.05;70.51;125687.94;6070419;23;20014;-87
2022/07/01 23:18:23;;;;;;;5.63;2.83;;;12.80;99.90;;;-144.05;70.78;125687.94;6071965;23;20143;-86
2022/07/01 23:20:52;;;;;;;4.65;2.92;;;12.70;99.90;;;-144.05;70.98;125687.94;6095680;23;20006;-88
2022/07/01 23:23:19;;;;;;;4.80;3.25;;;12.70;99.90;;;-144.05;71.21;125687.94;6070578;23;20010;-87
2022/07/01 23:25:58;;;;;;;6.18;2.95;;;12.60;99.90;;;-144.05;71.41;125687.94;6071012;23;20014;-86
2022/07/01 23:28:25;;;;;;;4.55;2.80;;;12.60;99.90;;;-144.05;72.26;125687.94;6093932;23;20317;-88
2022/07/01 23:30:56;;;;;;;4.53;3.22;;;12.60;99.90;;;-144.05;73.06;125687.94;6069949;23;20408;-86
2022/07/01 23:33:24;;;;;;;4.07;2.90;;;12.50;99.90;;;-144.05;72.77;125687.94;6069557;23;20011;-88
2022/07/01 23:35:53;;;;;;;8.20;3.83;;;12.50;99.90;;;-144.05;72.90;125687.94;6069706;23;20018;-88
2022/07/01 23:38:21;;;;;;;6.50;3.85;;;12.50;99.90;;;-144.05;73.15;125687.94;6071379;23;20007;-89
2022/07/01 23:41:14;;;;;;;5.85;3.67;;;12.60;99.90;;;-144.05;73.13;125687.94;6069790;23;20010;-87
2022/07/01 23:43:35;;;;;;;4.40;3.28;;;12.60;99.90;;;-144.05;73.15;125687.94;6071665;23;20007;-85
2022/07/01 23:46:01;;;;;;;10.38;3.40;;;12.60;99.90;;;-144.05;72.80;125687.94;6071486;23;20094;-86
2022/07/01 23:48:27;;;;;;;5.38;2.90;;;12.60;99.90;;;-144.05;72.69;125687.94;6071358;23;20010;-85
2022/07/01 23:50:53;;;;;;;7.00;2.88;;;12.60;99.90;;;-144.05;72.86;125687.94;6071443;23;20007;-87
2022/07/01 23:53:19;;;;;;;3.92;2.63;;;12.70;99.90;;;-144.05;72.78;125687.94;6069475;23;20011;-88
2022/07/01 23:55:44;;;;;;;4.22;2.30;;;12.70;99.90;;;-144.05;72.81;125687.94;6071077;23;20345;-89
2022/07/01 23:58:10;;;;;;;5.85;3.00;;;12.70;99.90;;;-144.05;72.55;125687.94;6071316;23;20333;-88
